createdAt,value
2022-09-16T00:13:43.135Z,100
2022-09-16T00:42:25.592Z,100
2022-09-16T01:10:42.239Z,100
2022-09-16T01:38:57.244Z,99.86
2022-09-16T02:07:42.614Z,100
2022-09-16T02:36:09.921Z,100
2022-09-16T03:05:04.980Z,100
2022-09-16T03:33:54.492Z,99.4
2022-09-16T04:02:56.147Z,100
2022-09-16T04:31:37.777Z,100
2022-09-16T04:59:56.011Z,100
2022-09-16T05:28:18.098Z,100
2022-09-16T05:57:07.819Z,100
2022-09-16T06:25:31.591Z,100
2022-09-16T06:54:16.236Z,100
2022-09-16T07:23:03.746Z,100
2022-09-16T07:51:49.316Z,100
2022-09-16T08:20:05.358Z,97.32
2022-09-16T08:48:16.167Z,97.87
2022-09-16T09:17:14.553Z,91.04
2022-09-16T09:46:04.890Z,87.27
2022-09-16T10:14:58.175Z,86.54
2022-09-16T10:43:43.658Z,80.91
2022-09-16T11:12:44.323Z,69.28
2022-09-16T11:41:17.358Z,70.59
2022-09-16T12:10:14.689Z,64.17
2022-09-16T12:38:56.558Z,57.24
2022-09-16T13:07:35.772Z,50.92
2022-09-16T13:36:29.983Z,50.86
2022-09-16T14:04:47.738Z,50.27
2022-09-16T14:33:26.176Z,51.87
2022-09-16T15:02:12.740Z,53.39
2022-09-16T15:30:28.807Z,54.82
2022-09-16T15:58:48.901Z,53.39
2022-09-16T16:27:36.784Z,56.76
2022-09-16T16:56:18.452Z,54.7
2022-09-16T17:25:02.081Z,59.77
2022-09-16T17:53:45.305Z,61.7
2022-09-16T18:22:51.597Z,63.37
2022-09-16T18:51:18.805Z,61.81
2022-09-16T19:19:55.022Z,63.61
2022-09-16T19:48:44.663Z,66.91
2022-09-16T20:17:27.076Z,69.02
2022-09-16T20:46:10.136Z,70.05
2022-09-16T21:14:43.538Z,69.81
2022-09-16T21:43:35.882Z,70.62
2022-09-16T22:12:19.855Z,73.65
2022-09-16T22:40:40.500Z,72.04
2022-09-16T23:08:49.554Z,73.51
2022-09-16T23:36:53.968Z,71.42
